Victoria, Texas
Current Conditions -  °F | °C
As of 2:51 PM on Saturday 25 Oct 2014 (Local Time) from KVCT Reporting Station
Clear Clear  
Wind Chill: 88°   Ceiling: Unl
Heat Index: 88°   Visibility: 10mi
Dew Point: 59°   Wind: 6mph
Humidity: 37%   Direction: 70°ENE
Pressure: 30.1"   Gusts: NA
Location:  28.81°N, 97°W
Report Text: KVCT 251951Z 07005KT 10SM CLR 31/15 A3010 RMK AO2 SLP191 T03110150
Loading
Personal Weather Stations






























Interactive Weather Map
Tropical Storm Tracking
New forecast layout! Learn more

10-Day Weather Forecast

Advertisements
Track Severe Weather on mobile